Time;durP1;ratioP1;P1;durP2;ratioP2;P2;SDS_P1;SDS_P2;PMS_P1;PMS_P2;Temp;Humidity;BMP_temperature;BMP_pressure;BME280_temperature;BME280_humidity;BME280_pressure;Samples;Min_cycle;Max_cycle;Signal;HPM_P1;HPM_P2
2021/09/14 00:01:37;;;;;;;10.73;6.32;;;;;;;11.83;87.53;90881.00;4963507;28;20032;-91
2021/09/14 00:04:03;;;;;;;11.18;6.40;;;;;;;11.81;88.02;90883.19;4980293;28;20033;-92
2021/09/14 00:06:28;;;;;;;9.13;6.70;;;;;;;11.78;87.88;90879.41;4998485;28;20028;-93
2021/09/14 00:08:54;;;;;;;8.82;5.63;;;;;;;11.71;88.08;90874.75;4997992;28;20505;-92
2021/09/14 00:11:19;;;;;;;9.50;6.40;;;;;;;11.80;87.85;90881.66;4982035;28;20021;-91
2021/09/14 00:13:44;;;;;;;9.70;6.35;;;;;;;11.78;87.42;90874.19;4998354;28;20374;-92
2021/09/14 00:16:10;;;;;;;10.05;6.72;;;;;;;11.72;87.84;90875.50;4982347;28;20477;-91
2021/09/14 00:18:35;;;;;;;8.90;6.75;;;;;;;11.87;87.42;90876.66;4998234;28;20022;-91
2021/09/14 00:21:01;;;;;;;10.90;6.80;;;;;;;11.87;86.63;90866.97;4998226;28;20022;-91
2021/09/14 00:23:26;;;;;;;9.32;6.22;;;;;;;11.71;86.81;90871.38;4998313;28;20083;-91
2021/09/14 00:25:52;;;;;;;10.57;6.70;;;;;;;11.63;87.27;90867.84;4964405;28;20542;-91
2021/09/14 00:28:17;;;;;;;10.48;6.57;;;;;;;11.54;87.78;90869.09;4975158;28;20026;-92
2021/09/14 00:30:42;;;;;;;10.75;7.05;;;;;;;11.49;88.59;90864.88;4975290;28;20026;-92
2021/09/14 00:33:08;;;;;;;12.32;6.75;;;;;;;11.43;87.72;90863.59;4978420;28;20375;-91
2021/09/14 00:35:33;;;;;;;8.50;5.30;;;;;;;11.45;86.16;90870.00;4979293;28;20502;-91
2021/09/14 00:37:59;;;;;;;8.75;5.68;;;;;;;11.38;85.53;90864.59;4978942;28;20494;-93
2021/09/14 00:40:24;;;;;;;15.07;6.18;;;;;;;11.30;86.54;90867.34;4978592;28;20391;-91
2021/09/14 00:42:49;;;;;;;11.35;5.95;;;;;;;11.29;86.66;90863.97;4989478;28;20491;-91
2021/09/14 00:45:15;;;;;;;8.07;5.85;;;;;;;11.23;86.79;90870.53;5001841;28;20477;-92
2021/09/14 00:47:40;;;;;;;12.82;6.15;;;;;;;11.12;86.71;90862.41;5001494;28;20025;-92
2021/09/14 00:50:06;;;;;;;10.60;6.30;;;;;;;11.05;86.43;90851.78;5001668;28;20036;-92
2021/09/14 00:52:35;;;;;;;9.18;6.40;;;;;;;11.23;86.56;90855.63;4978655;28;20015;-91
2021/09/14 00:55:01;;;;;;;9.40;6.43;;;;;;;11.37;87.27;90855.25;4979227;28;20041;-92
2021/09/14 00:57:26;;;;;;;9.10;6.50;;;;;;;11.30;86.02;90857.66;4978752;28;20022;-91
2021/09/14 00:59:52;;;;;;;12.52;6.63;;;;;;;11.21;87.51;90852.59;4962507;28;20208;-92
2021/09/14 01:02:17;;;;;;;10.93;6.20;;;;;;;11.18;87.24;90847.28;4982903;28;20025;-91
2021/09/14 01:04:43;;;;;;;9.63;6.32;;;;;;;11.19;88.81;90843.59;5001328;28;20041;-92
2021/09/14 01:07:08;;;;;;;13.30;7.20;;;;;;;11.08;88.15;90843.31;4985059;28;20500;-92
2021/09/14 01:09:35;;;;;;;11.07;6.95;;;;;;;11.10;89.49;90843.00;4984887;28;20512;-91
2021/09/14 01:12:00;;;;;;;11.43;7.38;;;;;;;11.19;89.79;90843.59;4985418;28;20474;-92
2021/09/14 01:14:26;;;;;;;10.32;7.05;;;;;;;11.06;90.10;90847.31;4984161;28;20029;-92
2021/09/14 01:16:51;;;;;;;10.05;7.05;;;;;;;10.98;89.96;90849.75;4965459;28;20021;-92
2021/09/14 01:19:17;;;;;;;12.20;7.30;;;;;;;11.03;90.88;90850.63;4965447;28;20048;-91
2021/09/14 01:21:42;;;;;;;11.32;7.00;;;;;;;10.95;89.00;90854.84;4965442;28;20034;-91
2021/09/14 01:24:08;;;;;;;10.40;6.60;;;;;;;10.85;88.30;90848.28;4965476;28;20080;-92
2021/09/14 01:26:33;;;;;;;11.07;6.93;;;;;;;10.97;88.68;90844.88;4965844;28;20544;-91
2021/09/14 01:29:06;;;;;;;10.50;7.40;;;;;;;10.86;89.91;90847.19;4965272;28;20026;-92
2021/09/14 01:31:31;;;;;;;9.27;6.60;;;;;;;10.81;89.08;90850.00;4965799;28;20037;-92
2021/09/14 01:33:56;;;;;;;8.68;6.50;;;;;;;10.80;88.43;90848.50;4965526;28;20029;-91
2021/09/14 01:36:22;;;;;;;12.30;7.15;;;;;;;10.86;89.40;90849.78;4965378;28;20056;-92
2021/09/14 01:38:48;;;;;;;13.02;7.32;;;;;;;11.18;89.43;90847.28;4964992;28;20022;-92
2021/09/14 01:41:13;;;;;;;11.00;7.03;;;;;;;11.19;88.76;90843.59;4965476;28;20383;-92
2021/09/14 01:43:40;;;;;;;10.20;7.30;;;;;;;11.05;90.16;90843.22;4964099;28;20025;-91
2021/09/14 01:46:05;;;;;;;11.32;7.28;;;;;;;10.94;90.65;90851.50;4965347;28;20374;-91
2021/09/14 01:48:31;;;;;;;14.25;7.80;;;;;;;10.96;89.78;90841.50;4964929;28;20025;-92
2021/09/14 01:50:56;;;;;;;10.93;7.38;;;;;;;11.04;90.19;90852.13;4961696;28;20372;-92
2021/09/14 01:53:24;;;;;;;10.35;7.47;;;;;;;10.93;89.71;90844.03;4945986;28;20033;-92
2021/09/14 01:55:50;;;;;;;10.82;7.47;;;;;;;10.93;89.62;90847.38;4962298;28;20022;-92
2021/09/14 01:58:16;;;;;;;10.68;6.75;;;;;;;10.74;87.94;90842.78;4945571;28;20077;-92
2021/09/14 02:00:54;;;;;;;9.73;6.40;;;;;;;10.64;88.00;90837.25;4961722;28;20041;-92
2021/09/14 03:00:44;;;;;;;11.70;7.70;;;;;;;10.52;92.13;90828.34;4946107;28;20561;-88
2021/09/14 03:03:10;;;;;;;14.55;8.25;;;;;;;10.55;91.35;90834.78;4940600;28;20273;-88
2021/09/14 03:05:35;;;;;;;14.73;7.53;;;;;;;10.55;91.96;90829.56;4940842;28;20483;-88
2021/09/14 03:08:01;;;;;;;14.02;8.70;;;;;;;10.57;92.30;90829.25;4924741;28;20070;-87
2021/09/14 03:10:26;;;;;;;11.02;7.53;;;;;;;10.57;90.37;90824.03;4924774;28;20039;-87
2021/09/14 03:12:51;;;;;;;11.13;6.90;;;;;;;10.53;90.05;90824.69;4925008;28;20490;-88
2021/09/14 03:15:17;;;;;;;11.90;7.10;;;;;;;10.48;88.38;90822.28;4939928;28;20050;-88
2021/09/14 03:17:42;;;;;;;12.98;7.70;;;;;;;10.54;88.82;90828.03;4924701;28;20019;-87
2021/09/14 03:20:08;;;;;;;12.70;7.68;;;;;;;10.51;90.24;90826.84;4926801;28;20395;-88
2021/09/14 03:22:34;;;;;;;14.05;7.97;;;;;;;10.40;90.98;90820.59;4948612;28;20022;-87
2021/09/14 03:24:59;;;;;;;12.13;8.10;;;;;;;10.47;90.99;90826.00;4953920;29;20049;-87
2021/09/14 03:27:24;;;;;;;12.68;8.18;;;;;;;10.47;91.00;90820.03;4933689;29;20027;-87
2021/09/14 03:29:50;;;;;;;13.57;8.10;;;;;;;10.46;91.65;90819.28;4905435;29;20031;-87
2021/09/14 03:32:15;;;;;;;12.20;7.88;;;;;;;10.52;91.59;90817.94;4921353;29;20440;-87
2021/09/14 03:34:41;;;;;;;12.20;8.23;;;;;;;10.52;91.41;90817.19;4924190;28;20057;-87
2021/09/14 03:37:06;;;;;;;11.23;8.30;;;;;;;10.46;91.70;90810.69;4940160;28;20386;-87
2021/09/14 03:39:32;;;;;;;14.70;8.60;;;;;;;10.47;91.85;90814.81;4924437;28;20054;-87
2021/09/14 03:41:57;;;;;;;13.80;7.28;;;;;;;10.43;89.50;90814.72;4924644;28;20027;-87
2021/09/14 03:44:22;;;;;;;11.75;7.05;;;;;;;10.39;90.10;90819.06;4924061;28;20411;-87
2021/09/14 03:46:48;;;;;;;12.27;6.63;;;;;;;10.44;89.59;90820.69;4924200;28;20510;-87
2021/09/14 03:49:13;;;;;;;10.60;7.45;;;;;;;10.31;90.82;90814.72;4924400;28;20034;-87
2021/09/14 03:51:39;;;;;;;10.65;8.13;;;;;;;10.35;90.40;90818.19;4940254;28;20097;-88
2021/09/14 03:54:04;;;;;;;12.50;8.43;;;;;;;10.35;92.39;90812.22;4924187;28;20035;-86
2021/09/14 03:56:29;;;;;;;13.25;8.82;;;;;;;10.42;93.40;90807.97;4923908;28;20502;-87
2021/09/14 03:58:55;;;;;;;12.68;8.70;;;;;;;10.40;93.17;90806.81;4925690;28;20031;-87
2021/09/14 04:01:20;;;;;;;13.10;8.45;;;;;;;10.53;93.71;90806.44;4935095;28;20033;-88
2021/09/14 04:03:55;;;;;;;12.15;8.57;;;;;;;10.50;93.06;90801.91;4943820;28;20026;-88
2021/09/14 04:09:04;;;;;;;12.18;8.07;;;;;;;10.55;91.88;90810.56;4942989;28;19981;-88
2021/09/14 04:11:29;;;;;;;13.32;8.05;;;;;;;10.50;91.63;90811.56;4924918;29;20039;-87
2021/09/14 04:13:55;;;;;;;12.15;8.07;;;;;;;10.39;92.17;90811.25;4925186;29;20517;-87
2021/09/14 04:16:20;;;;;;;13.38;8.68;;;;;;;10.56;91.92;90812.81;4940069;28;20042;-87
2021/09/14 04:18:46;;;;;;;13.25;8.40;;;;;;;10.39;92.72;90810.47;4927730;28;20027;-88
2021/09/14 04:21:11;;;;;;;11.63;8.13;;;;;;;10.46;92.13;90811.47;4943994;28;20501;-87
2021/09/14 04:23:37;;;;;;;13.32;8.05;;;;;;;10.35;90.78;90810.38;4926261;28;20041;-87
2021/09/14 04:26:02;;;;;;;11.40;7.22;;;;;;;10.31;90.63;90814.72;4924272;29;20047;-87
2021/09/14 04:28:28;;;;;;;14.48;8.20;;;;;;;10.23;91.35;90815.59;4940784;29;20029;-87
2021/09/14 04:30:53;;;;;;;11.65;8.05;;;;;;;10.33;90.50;90815.16;4940653;29;20035;-88
2021/09/14 04:33:19;;;;;;;12.35;7.55;;;;;;;10.48;90.22;90819.69;4950706;28;20012;-89
2021/09/14 04:35:44;;;;;;;16.70;8.43;;;;;;;10.45;91.14;90816.97;4985142;28;20019;-89
2021/09/14 04:38:09;;;;;;;15.10;8.43;;;;;;;10.38;91.91;90817.53;4950362;28;20035;-87
2021/09/14 04:40:35;;;;;;;13.48;8.38;;;;;;;10.34;92.32;90816.69;4945011;28;20027;-87
2021/09/14 04:43:00;;;;;;;14.85;8.38;;;;;;;10.39;92.14;90820.88;4927871;28;20467;-87
2021/09/14 04:45:26;;;;;;;11.50;7.80;;;;;;;10.39;91.32;90826.88;4942348;28;20031;-88
2021/09/14 04:47:51;;;;;;;17.15;8.57;;;;;;;10.32;91.48;90821.47;4943005;28;20046;-87
2021/09/14 04:50:17;;;;;;;12.38;8.23;;;;;;;10.24;92.42;90820.44;4959430;28;20034;-87
2021/09/14 04:52:42;;;;;;;14.32;8.57;;;;;;;10.31;92.62;90817.31;4950583;29;20039;-87
2021/09/14 04:55:08;;;;;;;12.60;8.52;;;;;;;10.38;93.09;90822.00;4924079;29;20035;-88
2021/09/14 04:57:33;;;;;;;13.60;8.27;;;;;;;10.38;93.26;90827.94;4908196;29;20089;-86
2021/09/14 04:59:59;;;;;;;13.25;8.60;;;;;;;10.45;94.29;90828.16;4908273;29;20027;-87
2021/09/14 05:02:24;;;;;;;14.05;9.00;;;;;;;10.43;94.99;90822.53;4908146;29;20054;-87
2021/09/14 05:04:50;;;;;;;12.48;8.45;;;;;;;10.65;93.92;90825.75;4924477;28;20035;-87
2021/09/14 05:07:15;;;;;;;13.98;8.90;;;;;;;10.55;94.39;90816.53;4907874;29;20031;-87
2021/09/14 05:09:40;;;;;;;12.82;8.52;;;;;;;10.61;94.43;90822.28;4939461;29;20086;-87
2021/09/14 05:12:06;;;;;;;14.48;8.60;;;;;;;10.64;93.96;90829.44;4908221;29;20027;-87
2021/09/14 05:14:32;;;;;;;14.82;8.68;;;;;;;10.56;93.74;90823.25;4924227;29;20113;-87
2021/09/14 05:16:57;;;;;;;11.10;7.75;;;;;;;10.61;93.13;90820.44;4913617;28;20042;-88
2021/09/14 05:19:33;;;;;;;12.85;8.32;;;;;;;10.61;92.97;90809.25;4958580;28;20029;-87
2021/09/14 05:21:59;;;;;;;13.70;8.45;;;;;;;10.68;93.44;90819.88;4961301;28;20030;-87
2021/09/14 05:24:26;;;;;;;13.43;8.75;;;;;;;10.67;93.16;90807.91;4926876;28;20506;-87
2021/09/14 05:26:52;;;;;;;13.60;9.00;;;;;;;10.64;93.08;90813.81;4924470;28;20085;-87
2021/09/14 05:29:17;;;;;;;13.65;8.02;;;;;;;10.71;92.79;90806.19;4924881;28;20395;-87
2021/09/14 05:31:43;;;;;;;11.77;7.57;;;;;;;10.80;92.09;90817.22;4942414;28;20038;-88
2021/09/14 05:34:08;;;;;;;12.18;7.88;;;;;;;10.74;92.30;90823.75;4926429;28;20503;-88
2021/09/14 05:36:33;;;;;;;11.27;7.80;;;;;;;10.75;92.97;90817.47;4936034;29;20046;-87
2021/09/14 05:38:59;;;;;;;11.35;7.80;;;;;;;10.80;93.44;90812.00;4938414;29;20812;-86
2021/09/14 05:41:25;;;;;;;12.85;7.88;;;;;;;10.80;93.84;90819.81;4944944;28;20081;-87
2021/09/14 05:43:51;;;;;;;13.27;8.38;;;;;;;10.95;93.30;90819.13;4942624;28;20037;-88
2021/09/14 05:46:16;;;;;;;13.25;9.02;;;;;;;10.99;93.41;90825.22;4942378;28;20022;-87
2021/09/14 05:48:42;;;;;;;15.30;8.10;;;;;;;11.11;93.15;90834.06;4926231;28;20386;-86
2021/09/14 05:51:07;;;;;;;13.20;8.63;;;;;;;11.09;93.33;90828.41;4959877;28;20668;-87
2021/09/14 05:53:33;;;;;;;12.88;8.60;;;;;;;11.18;93.03;90831.66;4958428;28;20026;-88
2021/09/14 05:55:58;;;;;;;11.00;7.72;;;;;;;11.30;92.74;90834.19;4942916;28;20103;-87
2021/09/14 05:58:24;;;;;;;13.13;8.45;;;;;;;11.26;92.72;90835.94;4926220;28;20027;-87
2021/09/14 06:00:49;;;;;;;11.45;8.10;;;;;;;11.30;92.63;90823.75;4908846;29;20031;-88
2021/09/14 06:03:15;;;;;;;11.68;7.75;;;;;;;11.42;92.30;90836.75;4907592;29;20035;-87
2021/09/14 06:05:40;;;;;;;12.05;8.25;;;;;;;11.46;92.15;90832.38;4923177;29;20027;-88
2021/09/14 06:08:06;;;;;;;12.43;7.80;;;;;;;11.43;92.31;90840.13;4916388;29;20023;-87
2021/09/14 06:10:31;;;;;;;14.80;8.50;;;;;;;11.48;92.32;90843.25;4928819;28;20391;-85
2021/09/14 06:12:57;;;;;;;12.25;8.05;;;;;;;11.47;92.46;90835.75;4938956;28;20003;-91
2021/09/14 06:15:22;;;;;;;11.07;8.20;;;;;;;11.62;92.32;90842.06;4944525;28;20046;-87
2021/09/14 06:17:47;;;;;;;13.27;8.07;;;;;;;11.67;91.98;90837.38;4933417;28;20030;-87
2021/09/14 06:20:13;;;;;;;12.02;8.30;;;;;;;11.70;92.32;90841.16;4925894;28;20027;-86
2021/09/14 06:22:38;;;;;;;11.60;8.35;;;;;;;11.80;92.28;90842.50;4941428;28;20034;-87
2021/09/14 06:25:04;;;;;;;12.43;8.27;;;;;;;11.84;92.40;90843.41;4937510;28;20045;-88
2021/09/14 06:27:29;;;;;;;12.27;8.20;;;;;;;11.88;92.54;90845.00;4940933;28;20027;-87
2021/09/14 06:29:55;;;;;;;14.68;8.68;;;;;;;11.91;92.43;90840.97;4925151;28;20041;-87
2021/09/14 06:32:20;;;;;;;12.32;8.23;;;;;;;11.95;92.51;90847.78;4925829;28;20035;-88
2021/09/14 06:34:46;;;;;;;13.15;8.00;;;;;;;12.00;92.28;90853.84;4941340;28;20026;-87
2021/09/14 06:37:11;;;;;;;11.80;7.90;;;;;;;12.04;91.90;90844.97;4924943;28;20030;-87
2021/09/14 06:39:37;;;;;;;13.80;8.38;;;;;;;12.14;92.04;90854.16;4955977;28;20038;-89
2021/09/14 06:42:03;;;;;;;12.30;8.07;;;;;;;12.20;91.77;90850.19;4945641;29;20027;-89
2021/09/14 06:44:28;;;;;;;11.25;8.02;;;;;;;12.28;91.71;90854.47;4933368;28;20090;-87
2021/09/14 06:46:54;;;;;;;10.35;7.90;;;;;;;12.38;91.64;90853.22;4924761;28;20513;-88
2021/09/14 06:49:19;;;;;;;14.30;7.88;;;;;;;12.52;90.90;90858.75;4940633;28;20546;-89
2021/09/14 06:51:45;;;;;;;12.43;8.10;;;;;;;12.55;91.23;90857.31;4925058;28;20054;-88
2021/09/14 06:54:10;;;;;;;13.68;8.15;;;;;;;12.61;92.36;90853.31;4940543;28;20089;-88
2021/09/14 06:56:36;;;;;;;13.77;8.38;;;;;;;12.72;91.64;90849.09;4925095;28;20031;-88
2021/09/14 06:59:01;;;;;;;15.35;8.68;;;;;;;12.89;91.73;90853.16;4937701;28;20034;-87
2021/09/14 07:01:26;;;;;;;13.48;8.35;;;;;;;13.00;91.20;90850.75;4923887;28;20027;-88
2021/09/14 07:03:53;;;;;;;10.50;7.68;;;;;;;13.10;89.95;90844.97;4942979;28;20487;-88
2021/09/14 07:06:18;;;;;;;11.70;7.72;;;;;;;13.23;89.64;90843.75;4958664;28;20029;-88
2021/09/14 07:08:44;;;;;;;13.45;7.85;;;;;;;13.34;89.62;90857.81;4923708;28;20014;-87
2021/09/14 07:11:09;;;;;;;13.10;8.00;;;;;;;13.47;88.98;90853.19;4940092;28;20030;-87
2021/09/14 07:13:34;;;;;;;11.48;7.82;;;;;;;13.56;89.14;90850.34;4924358;28;20023;-88
2021/09/14 07:16:00;;;;;;;11.55;7.50;;;;;;;13.65;88.74;90855.38;4955877;28;20033;-88
2021/09/14 07:18:25;;;;;;;14.73;8.52;;;;;;;13.79;88.66;90863.50;4923976;28;20019;-88
2021/09/14 07:20:51;;;;;;;12.93;7.47;;;;;;;13.94;88.63;90865.22;4939674;28;20031;-87
2021/09/14 07:23:16;;;;;;;12.75;8.13;;;;;;;14.10;88.42;90857.28;4939481;28;20026;-88
2021/09/14 07:25:42;;;;;;;10.82;7.55;;;;;;;14.23;87.02;90855.97;4956913;28;20023;-88
2021/09/14 07:28:10;;;;;;;11.13;7.15;;;;;;;14.38;87.41;90850.94;4923859;28;20026;-87
2021/09/14 07:30:36;;;;;;;12.25;7.90;;;;;;;14.57;88.40;90858.75;4924492;28;20027;-88
2021/09/14 07:33:02;;;;;;;12.13;8.32;;;;;;;14.76;85.58;90839.53;4924098;28;20066;-88
2021/09/14 07:35:30;;;;;;;12.23;7.95;;;;;;;14.94;84.34;90847.63;4940205;28;20030;-88
2021/09/14 07:37:55;;;;;;;9.88;7.22;;;;;;;15.16;84.70;90840.75;4923723;28;20022;-87
2021/09/14 07:40:21;;;;;;;11.35;7.35;;;;;;;15.32;84.56;90851.09;4955325;28;20026;-88
2021/09/14 07:42:46;;;;;;;11.27;7.10;;;;;;;15.39;84.92;90840.66;4938623;28;20019;-88
2021/09/14 07:45:12;;;;;;;14.45;7.63;;;;;;;15.47;85.11;90845.63;4923619;28;20105;-87
2021/09/14 07:47:37;;;;;;;10.55;7.32;;;;;;;15.58;83.59;90844.97;4939091;28;20022;-88
2021/09/14 07:50:03;;;;;;;13.25;7.07;;;;;;;15.77;83.20;90852.72;4923561;28;20046;-87
2021/09/14 07:52:28;;;;;;;12.07;7.43;;;;;;;15.91;83.24;90854.72;4955293;28;20039;-87
2021/09/14 07:54:54;;;;;;;10.27;7.05;;;;;;;16.02;82.28;90855.56;4939411;28;20019;-88
2021/09/14 07:57:19;;;;;;;9.63;6.60;;;;;;;16.21;82.64;90846.72;4955230;28;20034;-88
2021/09/14 07:59:45;;;;;;;11.98;6.82;;;;;;;16.36;81.74;90855.47;4939013;28;20023;-88
2021/09/14 08:02:10;;;;;;;11.80;6.63;;;;;;;16.51;82.04;90851.84;4939611;28;20499;-88
2021/09/14 08:04:35;;;;;;;10.18;6.68;;;;;;;16.78;79.44;90849.03;4923704;28;20081;-87
2021/09/14 08:07:01;;;;;;;10.38;6.57;;;;;;;16.89;78.96;90853.25;4955074;28;20023;-88
2021/09/14 08:09:29;;;;;;;9.95;6.47;;;;;;;17.06;80.06;90853.69;5039249;23;20058;-92
2021/09/14 08:11:55;;;;;;;8.18;5.80;;;;;;;17.11;74.95;90834.91;5002674;28;20037;-92
2021/09/14 08:14:21;;;;;;;12.43;6.40;;;;;;;17.31;76.81;90848.53;5018718;28;20087;-92
2021/09/14 08:16:46;;;;;;;11.40;5.40;;;;;;;17.37;71.03;90841.78;5002079;28;20024;-92
2021/09/14 08:19:12;;;;;;;8.85;5.45;;;;;;;17.39;73.79;90847.44;4998662;28;20067;-91
2021/09/14 08:21:37;;;;;;;9.55;5.70;;;;;;;17.38;76.49;90851.19;4998647;28;20028;-91
2021/09/14 08:24:03;;;;;;;9.15;5.15;;;;;;;17.41;73.39;90845.19;5000850;28;20390;-90
2021/09/14 08:26:28;;;;;;;10.05;5.60;;;;;;;17.40;74.47;90848.97;5003625;28;20025;-91
2021/09/14 08:28:54;;;;;;;11.40;5.85;;;;;;;17.51;75.22;90847.09;4981729;28;20428;-91
2021/09/14 08:31:19;;;;;;;8.38;4.65;;;;;;;17.59;68.04;90848.63;4998459;28;20045;-92
2021/09/14 08:33:45;;;;;;;7.43;4.70;;;;;;;17.76;69.23;90854.34;5019309;28;20036;-91
2021/09/14 08:36:10;;;;;;;12.40;4.53;;;;;;;18.09;62.29;90858.56;5021273;28;20028;-91
2021/09/14 08:38:35;;;;;;;7.53;4.82;;;;;;;18.33;62.23;90851.81;5021232;28;20398;-91
2021/09/14 08:41:01;;;;;;;9.65;4.97;;;;;;;18.42;64.81;90854.06;5021496;28;20035;-91
2021/09/14 08:43:26;;;;;;;6.60;4.55;;;;;;;18.47;63.18;90851.78;5037680;28;20025;-92
2021/09/14 08:45:52;;;;;;;9.55;4.47;;;;;;;18.45;62.64;90854.06;5021076;28;20488;-91
2021/09/14 08:48:17;;;;;;;8.35;4.35;;;;;;;18.55;63.82;90858.59;5021339;28;20472;-91
2021/09/14 08:50:43;;;;;;;6.63;4.43;;;;;;;18.68;59.92;90853.66;5021163;28;20025;-91
2021/09/14 08:53:08;;;;;;;6.60;4.25;;;;;;;18.67;59.40;90849.53;5022331;28;20385;-91
2021/09/14 08:55:35;;;;;;;9.90;4.72;;;;;;;18.78;61.22;90850.31;5009194;28;20028;-91
2021/09/14 08:58:02;;;;;;;8.35;4.07;;;;;;;18.98;59.44;90848.00;5024335;28;20025;-91
2021/09/14 09:00:31;;;;;;;7.32;4.20;;;;;;;18.95;59.99;90855.94;5022839;28;20488;-91
2021/09/14 09:02:57;;;;;;;9.50;4.38;;;;;;;19.06;60.62;90854.78;5021717;28;20095;-91
2021/09/14 09:05:32;;;;;;;8.13;4.78;;;;;;;18.99;59.60;90857.44;5006156;28;20048;-92
2021/09/14 09:07:58;;;;;;;9.20;4.13;;;;;;;19.32;57.66;90858.84;5022400;28;20075;-92
2021/09/14 09:10:23;;;;;;;6.72;3.97;;;;;;;19.47;58.72;90856.16;5019669;28;20554;-92
2021/09/14 09:12:49;;;;;;;8.63;4.57;;;;;;;19.54;58.81;90854.25;5004922;28;20037;-92
2021/09/14 09:15:24;;;;;;;5.43;4.00;;;;;;;19.52;57.85;90859.16;5004833;28;20020;-91
2021/09/14 09:18:00;;;;;;;7.28;4.30;;;;;;;19.65;58.14;90861.41;5020788;28;20021;-91
2021/09/14 09:20:25;;;;;;;9.15;4.55;;;;;;;19.64;58.72;90858.00;5020803;28;20029;-90
2021/09/14 09:22:59;;;;;;;8.68;4.20;;;;;;;19.80;56.87;90857.56;5020769;28;20025;-92
2021/09/14 09:25:25;;;;;;;10.93;4.50;;;;;;;19.87;58.02;90854.13;5005208;28;20021;-90
2021/09/14 09:28:10;;;;;;;7.78;4.15;;;;;;;20.04;55.48;90861.22;5020504;28;20052;-91
2021/09/14 09:30:41;;;;;;;6.05;3.85;;;;;;;20.13;53.94;90858.13;5000507;28;20157;-90
2021/09/14 09:33:09;;;;;;;7.95;4.10;;;;;;;20.34;54.00;90868.56;5001026;28;20029;-90
2021/09/14 09:35:39;;;;;;;6.32;3.80;;;;;;;20.50;55.42;90860.91;4985071;28;20055;-90
2021/09/14 09:38:04;;;;;;;7.70;4.40;;;;;;;20.51;54.76;90864.31;4984712;28;20025;-91
2021/09/14 09:40:38;;;;;;;7.95;4.28;;;;;;;20.64;53.96;90859.31;4984619;28;20443;-91
2021/09/14 09:43:07;;;;;;;6.25;3.88;;;;;;;20.83;53.33;90861.41;4984869;28;20026;-90
2021/09/14 09:45:39;;;;;;;9.43;4.30;;;;;;;20.74;51.91;90858.44;5000969;28;20040;-92
2021/09/14 09:48:05;;;;;;;6.00;4.03;;;;;;;20.74;56.08;90858.44;4998457;28;20075;-92
2021/09/14 09:50:30;;;;;;;7.32;4.00;;;;;;;20.97;54.78;90857.88;5001095;28;20025;-91
2021/09/14 09:52:56;;;;;;;9.77;4.43;;;;;;;20.93;54.20;90849.97;5001342;28;20474;-91
2021/09/14 09:55:22;;;;;;;5.53;4.13;;;;;;;20.98;53.60;90854.81;5001010;28;20041;-92
2021/09/14 09:57:47;;;;;;;5.63;3.90;;;;;;;21.09;52.61;90852.06;4998026;28;20021;-89
2021/09/14 10:00:13;;;;;;;5.00;3.75;;;;;;;20.99;52.75;90853.69;4984698;28;20021;-89
2021/09/14 10:02:52;;;;;;;8.23;4.07;;;;;;;20.93;52.83;90860.56;5001167;28;20029;-90
2021/09/14 10:08:27;;;;;;;8.50;4.20;;;;;;;20.96;53.29;90859.78;5034714;28;20099;-89
2021/09/14 10:10:57;;;;;;;6.78;3.97;;;;;;;20.89;52.87;90869.69;5005624;28;20033;-90
2021/09/14 10:13:33;;;;;;;5.03;3.85;;;;;;;20.74;52.37;90869.03;5021225;28;20028;-91
2021/09/14 10:15:59;;;;;;;5.82;3.92;;;;;;;20.93;52.60;90875.69;5007271;28;20021;-89
2021/09/14 10:18:29;;;;;;;7.78;4.32;;;;;;;20.92;55.38;90874.94;5006055;28;20451;-91
2021/09/14 10:20:55;;;;;;;7.20;4.07;;;;;;;20.96;53.84;90873.03;5010282;28;20426;-90
2021/09/14 10:23:30;;;;;;;6.90;4.05;;;;;;;21.05;52.35;90872.53;5025274;28;20250;-89
2021/09/14 10:26:12;;;;;;;6.40;3.80;;;;;;;20.99;52.41;90874.88;5026814;28;20030;-90
2021/09/14 10:28:48;;;;;;;6.55;4.10;;;;;;;21.19;54.40;90872.41;5025943;28;20408;-89
2021/09/14 10:31:25;;;;;;;5.65;4.07;;;;;;;21.15;52.63;90865.66;5025345;28;20373;-89
2021/09/14 10:34:11;;;;;;;8.20;4.13;;;;;;;21.10;52.56;90874.03;5026076;28;20020;-90
2021/09/14 10:36:40;;;;;;;4.95;4.03;;;;;;;21.05;51.94;90877.09;5025886;28;20017;-89
2021/09/14 10:39:24;;;;;;;6.18;4.00;;;;;;;21.19;52.54;90874.31;5024998;28;20020;-90
2021/09/14 10:41:53;;;;;;;10.52;4.05;;;;;;;21.03;53.17;90869.56;5024687;28;20028;-89
2021/09/14 10:44:27;;;;;;;6.68;4.18;;;;;;;21.10;53.48;90863.44;5026069;28;20472;-90
2021/09/14 10:47:04;;;;;;;8.13;4.20;;;;;;;21.13;53.63;90867.94;5043120;28;20040;-89
2021/09/14 10:49:41;;;;;;;6.63;4.30;;;;;;;21.29;54.41;90860.19;5041803;28;20020;-90
2021/09/14 10:52:07;;;;;;;7.18;4.15;;;;;;;21.31;52.58;90870.41;5025268;28;20017;-90
2021/09/14 10:54:32;;;;;;;7.47;4.30;;;;;;;21.22;53.89;90870.88;5041925;28;20082;-89
2021/09/14 10:56:59;;;;;;;5.68;4.10;;;;;;;21.23;54.36;90878.41;5026821;28;20070;-90
2021/09/14 10:59:25;;;;;;;6.18;4.05;;;;;;;21.20;53.48;90873.94;5023032;28;20029;-89
2021/09/14 11:01:50;;;;;;;8.45;4.18;;;;;;;21.28;53.14;90873.84;5007195;28;20377;-89
2021/09/14 11:04:25;;;;;;;6.90;4.18;;;;;;;21.23;53.55;90872.38;5024611;28;20029;-90
2021/09/14 11:06:53;;;;;;;9.60;4.00;;;;;;;21.32;54.39;90871.91;5005830;28;20067;-90
2021/09/14 11:09:18;;;;;;;7.32;4.68;;;;;;;21.33;55.64;90870.75;5004890;28;20033;-90
2021/09/14 11:11:50;;;;;;;7.55;4.32;;;;;;;21.47;55.59;90876.69;5021325;28;20551;-89
2021/09/14 11:14:16;;;;;;;7.50;4.70;;;;;;;21.54;56.49;90875.13;5005268;28;20028;-89
2021/09/14 11:16:45;;;;;;;7.88;4.38;;;;;;;21.37;55.57;90877.56;5004555;28;20029;-89
2021/09/14 11:19:10;;;;;;;6.15;4.53;;;;;;;21.33;55.74;90866.22;5001008;28;20104;-89
2021/09/14 11:21:36;;;;;;;7.95;4.20;;;;;;;21.29;56.06;90862.84;5001104;28;20400;-90
2021/09/14 11:24:01;;;;;;;5.63;4.65;;;;;;;21.33;55.89;90871.50;5002150;28;20064;-90
2021/09/14 11:26:27;;;;;;;6.60;4.30;;;;;;;21.39;55.71;90864.66;5001199;28;20439;-89
2021/09/14 11:28:57;;;;;;;7.05;4.47;;;;;;;21.32;55.20;90872.66;5001074;28;20444;-89
2021/09/14 11:31:23;;;;;;;7.03;4.57;;;;;;;21.55;55.79;90866.00;4985804;28;20036;-90
2021/09/14 11:33:48;;;;;;;7.85;4.30;;;;;;;21.74;55.51;90862.75;4982870;28;20401;-90
2021/09/14 11:36:14;;;;;;;9.38;4.57;;;;;;;21.72;54.78;90865.03;4982734;28;20052;-89
2021/09/14 11:38:39;;;;;;;8.98;4.53;;;;;;;21.83;56.24;90855.03;4981840;28;20067;-90
2021/09/14 11:41:10;;;;;;;7.97;4.47;;;;;;;22.13;55.16;90861.50;4981926;28;20042;-90
2021/09/14 11:43:37;;;;;;;8.27;4.57;;;;;;;22.25;52.03;90863.63;4997838;28;20021;-90
2021/09/14 11:46:18;;;;;;;6.95;4.25;;;;;;;22.39;48.35;90863.41;4982009;28;20021;-90
2021/09/14 11:48:54;;;;;;;9.05;4.07;;;;;;;22.52;48.70;90860.22;4997787;28;20021;-89
2021/09/14 11:51:19;;;;;;;10.65;4.65;;;;;;;22.74;48.48;90861.38;4982050;28;20550;-89
2021/09/14 11:53:49;;;;;;;5.10;3.60;;;;;;;22.92;47.18;90866.41;4995396;28;20021;-89
2021/09/14 11:56:16;;;;;;;5.07;3.65;;;;;;;23.08;47.83;90863.13;4999141;28;20045;-89
2021/09/14 11:58:45;;;;;;;8.90;3.78;;;;;;;23.17;46.67;90866.00;4998289;28;20783;-89
2021/09/14 12:01:11;;;;;;;6.82;3.70;;;;;;;23.33;45.87;90860.03;4998085;28;20037;-90
2021/09/14 12:03:43;;;;;;;5.88;3.58;;;;;;;23.26;46.85;90855.59;4998616;28;20036;-88
2021/09/14 12:06:08;;;;;;;7.13;3.63;;;;;;;23.28;47.93;90865.81;5015204;28;20029;-90
2021/09/14 12:08:35;;;;;;;6.07;3.90;;;;;;;23.16;47.56;90863.75;5014677;28;20401;-89
2021/09/14 12:11:02;;;;;;;8.18;3.85;;;;;;;23.15;45.92;90857.69;4998165;28;20033;-90
2021/09/14 12:13:28;;;;;;;7.35;3.88;;;;;;;22.91;47.94;90851.63;5010015;28;20095;-90
2021/09/14 12:16:03;;;;;;;10.65;3.58;;;;;;;22.86;48.13;90857.38;5021170;28;20024;-90
2021/09/14 12:18:29;;;;;;;7.00;4.00;;;;;;;22.99;47.76;90854.94;5021453;28;20050;-90
2021/09/14 12:20:54;;;;;;;5.45;3.72;;;;;;;23.01;48.68;90855.28;5036783;28;20507;-89
2021/09/14 12:23:20;;;;;;;6.82;4.03;;;;;;;22.95;48.63;90848.94;5038222;28;20051;-90
2021/09/14 12:25:45;;;;;;;5.65;3.78;;;;;;;22.93;48.35;90856.53;5037848;28;20078;-90
2021/09/14 12:28:10;;;;;;;5.78;3.50;;;;;;;22.75;46.84;90848.84;5022025;28;20028;-90
2021/09/14 12:30:36;;;;;;;10.63;3.70;;;;;;;22.46;45.96;90851.94;5024511;28;20028;-90